createdAt,value
2019-05-20T00:02:39.917Z,22.73
2019-05-20T00:05:14.288Z,22.47
2019-05-20T00:07:48.591Z,24.63
2019-05-20T00:10:22.399Z,23.67
2019-05-20T00:13:05.291Z,23.17
2019-05-20T00:15:53.994Z,24.27
2019-05-20T00:18:36.960Z,28.77
2019-05-20T00:21:26.006Z,24.47
2019-05-20T00:24:08.150Z,25.33
2019-05-20T00:26:41.526Z,28.13
2019-05-20T00:29:15.980Z,26.77
2019-05-20T00:32:04.551Z,24.80
2019-05-20T00:34:52.936Z,25.73
2019-05-20T00:37:26.169Z,24.47
2019-05-20T00:39:59.546Z,25.20
2019-05-20T00:42:33.251Z,23.87
2019-05-20T00:45:06.821Z,26.33
2019-05-20T00:47:40.624Z,22.60
2019-05-20T00:50:14.715Z,24.87
2019-05-20T00:52:48.430Z,24.93
2019-05-20T00:55:33.113Z,25.50
2019-05-20T00:58:15.438Z,24.33
2019-05-20T01:00:49.463Z,24.70
2019-05-20T01:03:31.883Z,23.83
2019-05-20T01:06:05.241Z,24.80
2019-05-20T01:08:38.462Z,25.53
2019-05-20T01:11:11.648Z,25.60
2019-05-20T01:13:54.081Z,25.93
2019-05-20T01:16:36.892Z,25.20
2019-05-20T01:19:19.198Z,25.13
2019-05-20T01:21:52.622Z,25.90
2019-05-20T01:24:25.703Z,29.47
2019-05-20T01:26:59.445Z,27.17
2019-05-20T01:29:33.278Z,26.80
2019-05-20T01:32:06.900Z,24.03
2019-05-20T01:34:40.231Z,23.53
2019-05-20T01:37:13.802Z,26.07
2019-05-20T01:39:47.758Z,25.23
2019-05-20T01:42:21.277Z,24.27
2019-05-20T01:44:55.315Z,25.57
2019-05-20T01:47:29.619Z,29.17
2019-05-20T01:50:11.610Z,26.53
2019-05-20T01:52:47.052Z,29.30
2019-05-20T01:55:20.690Z,29.57
2019-05-20T01:57:54.297Z,27.50
2019-05-20T02:00:28.377Z,29.73
2019-05-20T02:03:10.815Z,25.93
2019-05-20T02:05:44.108Z,29.67
2019-05-20T02:08:18.075Z,27.67
2019-05-20T02:11:06.893Z,29.60
2019-05-20T02:13:56.155Z,28.93
2019-05-20T02:16:43.987Z,32.00
2019-05-20T02:19:19.271Z,30.33
2019-05-20T02:22:01.185Z,29.63
2019-05-20T02:24:36.903Z,27.23
2019-05-20T02:27:19.980Z,28.10
2019-05-20T02:30:02.665Z,30.27
2019-05-20T02:32:45.130Z,29.37
2019-05-20T02:35:18.904Z,26.27
2019-05-20T02:38:01.610Z,30.53
2019-05-20T02:40:34.866Z,30.77
2019-05-20T02:43:08.157Z,29.37
2019-05-20T02:45:42.188Z,36.63
2019-05-20T02:48:15.741Z,33.07
2019-05-20T02:50:49.103Z,32.50
2019-05-20T02:53:23.205Z,36.63
2019-05-20T02:55:57.121Z,33.90
2019-05-20T02:58:31.508Z,36.47
2019-05-20T03:01:05.036Z,35.63
2019-05-20T03:03:39.444Z,35.93
2019-05-20T03:06:28.005Z,38.63
2019-05-20T03:09:01.521Z,36.50
2019-05-20T03:11:35.014Z,37.80
2019-05-20T03:14:09.739Z,33.83
2019-05-20T03:16:43.011Z,36.47
2019-05-20T03:19:25.885Z,37.97
2019-05-20T03:21:59.320Z,38.17
2019-05-20T03:24:41.355Z,40.70
2019-05-20T03:27:15.347Z,42.70
2019-05-20T03:30:05.817Z,43.83
2019-05-20T03:32:48.565Z,43.47
2019-05-20T03:35:31.905Z,43.03
2019-05-20T03:38:05.436Z,45.30
2019-05-20T03:40:47.992Z,45.37
2019-05-20T03:43:30.509Z,43.77
2019-05-20T03:46:03.624Z,45.23
2019-05-20T03:48:37.170Z,47.37
2019-05-20T03:51:11.821Z,44.00
2019-05-20T03:53:44.639Z,49.60
2019-05-20T03:56:18.502Z,45.40
2019-05-20T03:58:51.025Z,52.43
2019-05-20T04:01:24.028Z,45.33
2019-05-20T04:03:57.418Z,49.30
2019-05-20T04:06:31.444Z,51.17
2019-05-20T04:09:14.773Z,52.43
2019-05-20T04:11:47.972Z,50.97
2019-05-20T04:14:21.610Z,55.47
2019-05-20T04:16:54.549Z,48.10
2019-05-20T04:19:36.706Z,53.07
2019-05-20T04:22:10.537Z,49.87
2019-05-20T04:24:44.200Z,52.17
2019-05-20T04:27:17.899Z,51.10
2019-05-20T04:29:52.011Z,49.70
2019-05-20T04:32:35.410Z,46.50
2019-05-20T04:35:21.280Z,50.73
2019-05-20T04:37:44.369Z,48.27
2019-05-20T04:40:18.078Z,49.50
2019-05-20T04:42:52.713Z,48.73
2019-05-20T04:45:26.442Z,48.30
2019-05-20T04:48:01.622Z,49.63
2019-05-20T04:50:35.411Z,51.47
2019-05-20T04:53:08.646Z,47.90
2019-05-20T04:55:42.161Z,48.60
2019-05-20T04:58:16.043Z,52.40
2019-05-20T05:00:54.324Z,48.93
2019-05-20T05:03:27.810Z,50.80
2019-05-20T05:06:01.129Z,53.37
2019-05-20T05:08:43.584Z,53.87
2019-05-20T05:11:26.445Z,47.37
2019-05-20T05:14:09.235Z,49.77
2019-05-20T05:16:52.066Z,44.67
2019-05-20T05:19:24.551Z,51.73
2019-05-20T05:21:57.927Z,49.57
2019-05-20T05:24:42.976Z,48.97
2019-05-20T05:27:16.520Z,49.10
2019-05-20T05:29:50.696Z,48.73
2019-05-20T05:32:42.753Z,45.07
2019-05-20T05:35:16.748Z,44.07
2019-05-20T05:37:50.137Z,43.87
2019-05-20T05:40:26.799Z,39.70
2019-05-20T05:43:00.018Z,40.43
2019-05-20T05:45:34.545Z,38.83
2019-05-20T05:48:16.894Z,40.63
2019-05-20T05:50:50.431Z,42.03
2019-05-20T05:53:23.708Z,38.77
2019-05-20T05:55:57.241Z,38.83
2019-05-20T05:58:31.297Z,38.83
2019-05-20T06:01:05.246Z,39.63
2019-05-20T06:03:48.268Z,37.50
2019-05-20T06:06:30.741Z,38.57
2019-05-20T06:09:18.097Z,37.23
2019-05-20T06:12:00.065Z,37.07
2019-05-20T06:14:33.466Z,34.93
2019-05-20T06:17:06.969Z,37.80
2019-05-20T06:19:40.786Z,37.53
2019-05-20T06:22:14.648Z,36.50
2019-05-20T06:24:47.999Z,37.87
2019-05-20T06:27:21.201Z,37.73
2019-05-20T06:29:54.755Z,36.57
2019-05-20T06:32:28.492Z,40.13
2019-05-20T06:35:02.498Z,40.30
2019-05-20T06:37:38.415Z,50.07
2019-05-20T06:40:24.945Z,52.17
2019-05-20T06:42:58.753Z,52.53
2019-05-20T06:45:40.900Z,50.73
2019-05-20T06:48:14.729Z,56.13
2019-05-20T06:50:48.323Z,53.27
2019-05-20T06:53:23.088Z,53.27
2019-05-20T06:55:56.655Z,52.27
2019-05-20T06:58:30.704Z,50.00
2019-05-20T07:01:04.009Z,49.20
2019-05-20T07:03:36.467Z,48.00
2019-05-20T07:06:10.003Z,51.80
2019-05-20T07:08:43.798Z,51.47
2019-05-20T07:11:17.013Z,56.80
2019-05-20T07:13:50.532Z,53.33
2019-05-20T07:16:24.104Z,55.30
2019-05-20T07:18:57.489Z,60.07
2019-05-20T07:21:31.415Z,55.70
2019-05-20T07:24:05.696Z,53.23
2019-05-20T07:26:51.049Z,54.73
2019-05-20T07:29:24.599Z,55.47
2019-05-20T07:32:07.502Z,60.57
2019-05-20T07:34:53.078Z,63.17
2019-05-20T07:37:26.353Z,64.67
2019-05-20T07:40:09.870Z,76.67
2019-05-20T07:42:43.430Z,73.33
2019-05-20T07:45:17.125Z,73.77
2019-05-20T07:47:50.947Z,70.83
2019-05-20T07:50:24.813Z,67.93
2019-05-20T07:53:12.377Z,70.57
2019-05-20T07:55:58.496Z,68.30
2019-05-20T07:58:34.358Z,66.87
2019-05-20T08:01:08.496Z,65.17
2019-05-20T08:03:42.057Z,58.57
2019-05-20T08:06:16.033Z,62.27
2019-05-20T08:08:49.228Z,56.03
2019-05-20T08:11:22.471Z,58.87
2019-05-20T08:13:56.811Z,58.57
2019-05-20T08:16:30.271Z,59.47
2019-05-20T08:19:03.312Z,59.07
2019-05-20T08:21:36.630Z,58.57
2019-05-20T08:24:18.810Z,52.33
2019-05-20T08:26:52.464Z,53.97
2019-05-20T08:29:31.125Z,57.23
2019-05-20T08:32:10.744Z,59.03
2019-05-20T08:34:51.730Z,59.30
2019-05-20T08:37:44.821Z,56.97
2019-05-20T08:40:12.290Z,54.70
2019-05-20T08:43:01.138Z,50.63
2019-05-20T08:45:39.718Z,52.77
2019-05-20T08:48:18.667Z,51.27
2019-05-20T08:50:57.986Z,49.40
2019-05-20T08:53:37.660Z,51.00
2019-05-20T08:56:16.630Z,48.00
2019-05-20T08:58:55.478Z,45.77
2019-05-20T09:01:32.284Z,44.70
2019-05-20T09:04:21.270Z,41.63
2019-05-20T09:07:09.954Z,43.90
2019-05-20T09:09:48.462Z,44.83
2019-05-20T09:12:27.528Z,44.07
2019-05-20T09:15:06.000Z,41.80
2019-05-20T09:17:45.157Z,41.27
2019-05-20T09:20:33.016Z,38.47
2019-05-20T09:23:24.670Z,34.03
2019-05-20T09:26:04.504Z,31.40
2019-05-20T09:28:45.457Z,32.33
2019-05-20T09:31:23.597Z,30.43
2019-05-20T09:34:03.781Z,31.93
2019-05-20T09:36:51.829Z,29.40
2019-05-20T09:39:29.825Z,31.47
2019-05-20T09:42:07.756Z,31.43
2019-05-20T09:44:46.657Z,27.47
2019-05-20T09:47:25.851Z,28.93
2019-05-20T09:50:06.716Z,30.80
2019-05-20T09:52:45.366Z,26.10
2019-05-20T09:55:35.099Z,25.40
2019-05-20T09:58:14.209Z,24.07
2019-05-20T10:00:53.314Z,22.80
2019-05-20T10:03:42.129Z,22.77
2019-05-20T10:06:20.979Z,22.97
2019-05-20T10:08:59.497Z,21.80
2019-05-20T10:11:38.657Z,20.93
2019-05-20T10:14:18.713Z,22.03
2019-05-20T10:16:52.529Z,22.03
2019-05-20T10:19:41.509Z,21.47
2019-05-20T10:22:26.754Z,20.07
2019-05-20T10:25:10.361Z,19.17
2019-05-20T10:27:43.953Z,19.83
2019-05-20T10:30:17.717Z,17.93
2019-05-20T10:32:51.114Z,17.63
2019-05-20T10:35:25.140Z,17.90
2019-05-20T10:37:58.896Z,17.70
2019-05-20T10:40:32.081Z,16.63
2019-05-20T10:43:05.674Z,17.40
2019-05-20T10:45:38.974Z,16.43
2019-05-20T10:48:12.718Z,15.30
2019-05-20T10:50:45.955Z,15.57
2019-05-20T10:53:18.624Z,14.70
2019-05-20T10:55:52.449Z,15.80
2019-05-20T10:58:26.081Z,16.23
2019-05-20T11:01:03.692Z,14.60
2019-05-20T11:03:35.872Z,15.23
2019-05-20T11:06:09.158Z,13.53
2019-05-20T11:08:42.325Z,13.70
2019-05-20T11:11:25.029Z,12.73
2019-05-20T11:14:07.777Z,12.83
2019-05-20T11:16:41.958Z,12.85
2019-05-20T11:19:30.106Z,12.13
2019-05-20T11:22:03.309Z,10.83
2019-05-20T11:24:37.276Z,12.58
2019-05-20T11:27:10.748Z,10.50
2019-05-20T11:29:44.417Z,10.38
2019-05-20T11:32:18.313Z,10.93
2019-05-20T11:35:01.152Z,9.75
2019-05-20T11:37:44.303Z,10.05
2019-05-20T11:40:26.507Z,9.90
2019-05-20T11:43:00.286Z,8.57
2019-05-20T11:45:33.522Z,8.63
2019-05-20T11:48:08.142Z,9.70
2019-05-20T11:50:42.401Z,10.55
2019-05-20T11:53:15.350Z,10.82
2019-05-20T11:55:49.050Z,9.58
2019-05-20T11:58:22.375Z,8.40
2019-05-20T12:01:04.788Z,11.25
2019-05-20T12:03:49.559Z,9.30
2019-05-20T12:06:22.768Z,9.83
2019-05-20T12:08:55.949Z,11.05
2019-05-20T12:11:38.684Z,9.60
2019-05-20T12:14:21.221Z,11.33
2019-05-20T12:17:04.287Z,10.50
2019-05-20T12:19:46.389Z,9.55
2019-05-20T12:22:20.576Z,8.58
2019-05-20T12:24:54.090Z,8.85
2019-05-20T12:27:37.668Z,9.05
2019-05-20T12:30:11.367Z,8.55
2019-05-20T12:32:45.004Z,7.90
2019-05-20T12:35:28.561Z,9.40
2019-05-20T12:38:11.250Z,8.90
2019-05-20T12:40:53.776Z,8.10
2019-05-20T12:43:27.134Z,9.60
2019-05-20T12:46:00.425Z,8.95
2019-05-20T12:48:44.012Z,8.80
2019-05-20T12:51:26.972Z,8.85
2019-05-20T12:53:59.385Z,8.05
2019-05-20T12:56:32.762Z,8.70
2019-05-20T12:59:07.832Z,8.43
2019-05-20T13:01:56.187Z,9.20
2019-05-20T13:04:29.858Z,7.70
2019-05-20T13:07:03.754Z,8.65
2019-05-20T13:09:37.880Z,9.10
2019-05-20T13:12:11.395Z,8.20
2019-05-20T13:14:44.642Z,9.00
2019-05-20T13:17:18.325Z,10.55
2019-05-20T13:19:50.857Z,10.08
2019-05-20T13:22:33.106Z,9.80
2019-05-20T13:25:07.007Z,8.28
2019-05-20T13:27:40.692Z,9.08
2019-05-20T13:30:16.332Z,9.07
2019-05-20T13:33:04.646Z,9.93
2019-05-20T13:35:38.511Z,9.20
2019-05-20T13:38:20.828Z,9.00
2019-05-20T13:40:54.414Z,9.23
2019-05-20T13:43:28.605Z,9.18
2019-05-20T13:46:11.097Z,9.65
2019-05-20T13:48:44.960Z,8.97
2019-05-20T13:51:27.665Z,10.20
2019-05-20T13:54:11.428Z,9.58
2019-05-20T13:56:44.947Z,8.88
2019-05-20T13:59:18.397Z,11.35
2019-05-20T14:01:51.759Z,10.23
2019-05-20T14:04:25.391Z,9.68
2019-05-20T14:06:58.730Z,9.53
2019-05-20T14:09:46.757Z,10.15
2019-05-20T14:12:20.841Z,10.25
2019-05-20T14:14:54.426Z,10.43
2019-05-20T14:17:39.369Z,9.83
2019-05-20T14:20:13.197Z,9.35
2019-05-20T14:22:47.563Z,9.65
2019-05-20T14:25:21.420Z,11.73
2019-05-20T14:27:54.481Z,10.35
2019-05-20T14:30:37.448Z,10.30
2019-05-20T14:33:11.309Z,10.10
2019-05-20T14:35:45.585Z,9.78
2019-05-20T14:38:19.504Z,11.12
2019-05-20T14:41:02.100Z,10.30
2019-05-20T14:43:36.358Z,10.80
2019-05-20T14:46:09.941Z,10.78
2019-05-20T14:48:43.523Z,10.70
2019-05-20T14:51:17.579Z,10.40
2019-05-20T14:54:01.362Z,9.63
2019-05-20T14:56:47.198Z,9.30
2019-05-20T14:59:29.309Z,8.80
2019-05-20T15:02:02.940Z,10.00
2019-05-20T15:04:36.134Z,9.53
2019-05-20T15:07:09.441Z,10.45
2019-05-20T15:09:43.983Z,10.25
2019-05-20T15:12:26.370Z,9.10
2019-05-20T15:14:59.289Z,11.18
2019-05-20T15:17:42.457Z,11.00
2019-05-20T15:20:15.433Z,11.65
2019-05-20T15:22:50.059Z,10.95
2019-05-20T15:25:32.593Z,10.45
2019-05-20T15:28:23.896Z,10.50
2019-05-20T15:31:06.551Z,11.23
2019-05-20T15:33:40.501Z,10.37
2019-05-20T15:36:25.348Z,10.50
2019-05-20T15:39:08.400Z,10.38
2019-05-20T15:41:53.151Z,9.60
2019-05-20T15:44:26.259Z,9.75
2019-05-20T15:47:00.378Z,11.97
2019-05-20T15:49:35.292Z,11.05
2019-05-20T15:52:09.477Z,10.82
2019-05-20T15:54:43.135Z,10.68
2019-05-20T15:57:15.605Z,11.38
2019-05-20T15:59:57.831Z,12.28
2019-05-20T16:02:31.483Z,13.62
2019-05-20T16:05:20.240Z,11.57
2019-05-20T16:08:09.396Z,11.03
2019-05-20T16:10:48.415Z,12.98
2019-05-20T16:13:23.101Z,13.48
2019-05-20T16:16:05.184Z,12.17
2019-05-20T16:18:38.599Z,12.03
2019-05-20T16:21:22.202Z,13.03
2019-05-20T16:24:04.935Z,12.50
2019-05-20T16:26:37.663Z,11.83
2019-05-20T16:29:11.169Z,13.53
2019-05-20T16:31:55.510Z,12.00
2019-05-20T16:34:42.155Z,12.47
2019-05-20T16:37:15.578Z,13.08
2019-05-20T16:39:49.736Z,12.55
2019-05-20T16:42:32.328Z,12.85
2019-05-20T16:45:11.308Z,12.33
2019-05-20T16:47:52.996Z,11.85
2019-05-20T16:50:26.616Z,11.65
2019-05-20T16:52:58.686Z,13.80
2019-05-20T16:55:32.481Z,12.67
2019-05-20T16:58:06.573Z,13.28
2019-05-20T17:00:51.290Z,17.17
2019-05-20T17:03:24.872Z,13.62
2019-05-20T17:05:58.157Z,12.77
2019-05-20T17:08:31.524Z,11.95
2019-05-20T17:11:05.027Z,12.57
2019-05-20T17:13:50.201Z,12.17
2019-05-20T17:16:23.953Z,12.35
2019-05-20T17:18:56.520Z,10.43
2019-05-20T17:21:30.138Z,11.20
2019-05-20T17:24:05.295Z,11.13
2019-05-20T17:26:40.764Z,12.15
2019-05-20T17:29:12.687Z,12.63
2019-05-20T17:31:46.414Z,10.70
2019-05-20T17:34:19.840Z,11.57
2019-05-20T17:36:52.755Z,12.07
2019-05-20T17:39:35.829Z,11.90
2019-05-20T17:42:09.497Z,13.50
2019-05-20T17:44:42.550Z,12.80
2019-05-20T17:47:25.246Z,11.43
2019-05-20T17:50:11.445Z,13.03
2019-05-20T17:52:55.206Z,13.17
2019-05-20T17:55:29.457Z,13.27
2019-05-20T17:58:03.391Z,13.23
2019-05-20T18:00:37.468Z,12.70
2019-05-20T18:03:11.303Z,12.27
2019-05-20T18:05:57.254Z,14.13
2019-05-20T18:08:33.016Z,12.60
2019-05-20T18:11:19.880Z,15.17
2019-05-20T18:13:53.470Z,13.30
2019-05-20T18:16:26.723Z,13.97
2019-05-20T18:19:00.936Z,13.47
2019-05-20T18:21:43.599Z,13.67
2019-05-20T18:24:15.818Z,12.27
2019-05-20T18:26:59.414Z,13.10
2019-05-20T18:29:34.102Z,13.43
2019-05-20T18:32:16.498Z,13.23
2019-05-20T18:34:59.471Z,12.90
2019-05-20T18:37:46.816Z,11.93
2019-05-20T18:40:34.652Z,13.63
2019-05-20T18:43:24.753Z,12.07
2019-05-20T18:46:03.919Z,13.63
2019-05-20T18:48:40.834Z,12.97
2019-05-20T18:51:27.519Z,12.90
2019-05-20T18:54:09.336Z,12.20
2019-05-20T18:56:49.782Z,12.40
2019-05-20T18:59:27.636Z,12.90
2019-05-20T19:02:05.996Z,13.77
2019-05-20T19:04:57.992Z,13.13
2019-05-20T19:07:36.387Z,14.23
2019-05-20T19:10:24.160Z,12.30
2019-05-20T19:13:05.833Z,13.33
2019-05-20T19:15:44.321Z,12.63
2019-05-20T19:18:39.454Z,12.30
2019-05-20T19:21:17.883Z,11.10
2019-05-20T19:23:58.341Z,10.50
2019-05-20T19:26:38.808Z,11.43
2019-05-20T19:29:20.659Z,10.63
2019-05-20T19:32:01.858Z,10.47
2019-05-20T19:34:37.729Z,11.50
2019-05-20T19:37:17.928Z,11.00
2019-05-20T19:39:55.473Z,11.67
2019-05-20T19:42:32.406Z,11.47
2019-05-20T19:45:21.023Z,11.90
2019-05-20T19:48:01.118Z,12.67
2019-05-20T19:50:39.048Z,11.63
2019-05-20T19:53:27.181Z,12.00
2019-05-20T19:56:05.811Z,13.17
2019-05-20T19:58:43.466Z,12.30
2019-05-20T20:01:33.264Z,13.17
2019-05-20T20:04:17.730Z,14.00
2019-05-20T20:06:59.812Z,14.43
2019-05-20T20:09:33.622Z,14.37
2019-05-20T20:12:07.397Z,14.27
2019-05-20T20:14:50.024Z,14.37
2019-05-20T20:17:23.475Z,14.43
2019-05-20T20:19:58.316Z,14.80
2019-05-20T20:22:31.943Z,12.97
2019-05-20T20:25:05.912Z,14.07
2019-05-20T20:27:39.570Z,14.60
2019-05-20T20:30:13.388Z,14.77
2019-05-20T20:32:47.600Z,14.27
2019-05-20T20:35:21.027Z,14.00
2019-05-20T20:38:04.441Z,13.53
2019-05-20T20:40:41.974Z,14.17
2019-05-20T20:43:16.191Z,13.80
2019-05-20T20:45:58.261Z,13.87
2019-05-20T20:48:31.658Z,14.20
2019-05-20T20:51:04.966Z,14.43
2019-05-20T20:53:38.891Z,13.73
2019-05-20T20:56:24.656Z,14.87
2019-05-20T20:58:48.021Z,14.73
2019-05-20T21:01:21.591Z,13.27
2019-05-20T21:03:56.416Z,14.17
2019-05-20T21:06:29.866Z,15.47
2019-05-20T21:09:05.949Z,14.30
2019-05-20T21:11:39.780Z,13.40
2019-05-20T21:14:14.013Z,15.70
2019-05-20T21:16:47.625Z,14.50
2019-05-20T21:19:21.230Z,14.10
2019-05-20T21:21:54.446Z,14.70
2019-05-20T21:24:28.428Z,16.50
2019-05-20T21:27:01.611Z,14.97
2019-05-20T21:29:34.789Z,14.90
2019-05-20T21:32:17.739Z,15.43
2019-05-20T21:35:00.363Z,13.03
2019-05-20T21:37:42.775Z,16.20
2019-05-20T21:40:16.457Z,14.07
2019-05-20T21:42:50.051Z,13.63
2019-05-20T21:45:24.989Z,13.40
2019-05-20T21:47:58.695Z,12.60
2019-05-20T21:50:32.426Z,13.47
2019-05-20T21:53:05.953Z,13.23
2019-05-20T21:55:39.878Z,14.43
2019-05-20T21:58:13.026Z,12.73
2019-05-20T22:00:53.241Z,13.07
2019-05-20T22:03:27.977Z,11.57
2019-05-20T22:06:01.907Z,12.40
2019-05-20T22:08:35.271Z,12.83
2019-05-20T22:11:09.250Z,11.37
2019-05-20T22:13:43.067Z,12.03
2019-05-20T22:16:29.571Z,13.23
2019-05-20T22:19:09.837Z,13.63
2019-05-20T22:21:54.860Z,14.20
2019-05-20T22:24:28.110Z,13.90
2019-05-20T22:27:05.559Z,13.50
2019-05-20T22:29:48.429Z,13.20
2019-05-20T22:32:31.257Z,14.00
2019-05-20T22:35:13.426Z,13.03
2019-05-20T22:37:46.984Z,13.77
2019-05-20T22:40:20.274Z,14.50
2019-05-20T22:42:54.042Z,15.13
2019-05-20T22:45:27.282Z,14.40
2019-05-20T22:48:02.179Z,13.67
2019-05-20T22:50:44.460Z,13.33
2019-05-20T22:53:19.052Z,13.10
2019-05-20T22:55:54.029Z,13.03
2019-05-20T22:58:29.756Z,11.93
2019-05-20T23:01:03.379Z,12.53
2019-05-20T23:03:36.975Z,11.90
2019-05-20T23:06:11.471Z,10.90
2019-05-20T23:08:44.999Z,11.93
2019-05-20T23:11:27.693Z,11.07
2019-05-20T23:14:10.691Z,9.67
2019-05-20T23:16:43.908Z,12.70
2019-05-20T23:19:27.554Z,12.73
2019-05-20T23:22:11.281Z,13.60
2019-05-20T23:24:53.583Z,13.43
2019-05-20T23:27:28.300Z,14.47
2019-05-20T23:30:01.781Z,13.83
2019-05-20T23:32:38.199Z,16.23
2019-05-20T23:35:20.722Z,16.83
2019-05-20T23:38:05.735Z,18.07
2019-05-20T23:40:39.321Z,22.00
2019-05-20T23:43:12.889Z,24.73
2019-05-20T23:45:46.518Z,23.93
2019-05-20T23:48:19.713Z,23.33
2019-05-20T23:50:52.629Z,26.23
2019-05-20T23:53:35.026Z,30.73
2019-05-20T23:56:17.638Z,29.80
2019-05-20T23:58:51.230Z,28.20
